sensor_id;sensor_type;location;lat;lon;timestamp;pressure;altitude;pressure_sealevel;temperature
22322;BMP180;11328;53.928;18.522;2023-01-28T00:01:41;101224.00;;;2.50
22322;BMP180;11328;53.928;18.522;2023-01-28T00:04:08;101222.00;;;2.40
22322;BMP180;11328;53.928;18.522;2023-01-28T00:06:36;101236.00;;;2.50
22322;BMP180;11328;53.928;18.522;2023-01-28T00:09:04;101225.00;;;2.50
22322;BMP180;11328;53.928;18.522;2023-01-28T00:11:31;101208.00;;;2.50
22322;BMP180;11328;53.928;18.522;2023-01-28T00:13:58;101229.00;;;2.50
22322;BMP180;11328;53.928;18.522;2023-01-28T00:16:26;101217.00;;;2.60
22322;BMP180;11328;53.928;18.522;2023-01-28T00:18:54;101221.00;;;2.50
22322;BMP180;11328;53.928;18.522;2023-01-28T00:21:22;101229.00;;;2.60
22322;BMP180;11328;53.928;18.522;2023-01-28T00:23:55;101221.00;;;2.50
22322;BMP180;11328;53.928;18.522;2023-01-28T00:26:23;101222.00;;;2.50
22322;BMP180;11328;53.928;18.522;2023-01-28T00:28:51;101221.00;;;2.40
22322;BMP180;11328;53.928;18.522;2023-01-28T00:31:24;101204.00;;;2.40
22322;BMP180;11328;53.928;18.522;2023-01-28T00:33:54;101223.00;;;2.50
22322;BMP180;11328;53.928;18.522;2023-01-28T00:36:24;101220.00;;;2.50
22322;BMP180;11328;53.928;18.522;2023-01-28T00:38:59;101215.00;;;2.40
22322;BMP180;11328;53.928;18.522;2023-01-28T00:41:28;101226.00;;;2.30
22322;BMP180;11328;53.928;18.522;2023-01-28T00:43:55;101227.00;;;2.40
22322;BMP180;11328;53.928;18.522;2023-01-28T00:46:23;101238.00;;;2.40
22322;BMP180;11328;53.928;18.522;2023-01-28T00:48:54;101222.00;;;2.40
22322;BMP180;11328;53.928;18.522;2023-01-28T00:51:22;101228.00;;;2.30
22322;BMP180;11328;53.928;18.522;2023-01-28T00:53:50;101230.00;;;2.40
22322;BMP180;11328;53.928;18.522;2023-01-28T00:56:17;101227.00;;;2.40
22322;BMP180;11328;53.928;18.522;2023-01-28T00:58:46;101235.00;;;2.40
22322;BMP180;11328;53.928;18.522;2023-01-28T01:01:17;101225.00;;;2.30
22322;BMP180;11328;53.928;18.522;2023-01-28T01:03:46;101211.00;;;2.20
22322;BMP180;11328;53.928;18.522;2023-01-28T01:06:15;101217.00;;;2.30
22322;BMP180;11328;53.928;18.522;2023-01-28T01:08:42;101216.00;;;2.40
22322;BMP180;11328;53.928;18.522;2023-01-28T01:11:17;101206.00;;;2.40
22322;BMP180;11328;53.928;18.522;2023-01-28T01:13:52;101213.00;;;2.20
22322;BMP180;11328;53.928;18.522;2023-01-28T01:16:30;101219.00;;;2.10
22322;BMP180;11328;53.928;18.522;2023-01-28T01:19:02;101203.00;;;2.00
22322;BMP180;11328;53.928;18.522;2023-01-28T01:21:30;101189.00;;;2.10
22322;BMP180;11328;53.928;18.522;2023-01-28T01:23:57;101205.00;;;2.10
22322;BMP180;11328;53.928;18.522;2023-01-28T01:26:25;101202.00;;;2.10
22322;BMP180;11328;53.928;18.522;2023-01-28T01:28:55;101151.00;;;2.00
22322;BMP180;11328;53.928;18.522;2023-01-28T01:31:23;101205.00;;;2.00
22322;BMP180;11328;53.928;18.522;2023-01-28T01:33:51;101196.00;;;2.00
22322;BMP180;11328;53.928;18.522;2023-01-28T01:36:19;101209.00;;;1.90
22322;BMP180;11328;53.928;18.522;2023-01-28T01:38:53;101211.00;;;1.80
22322;BMP180;11328;53.928;18.522;2023-01-28T01:41:32;101213.00;;;1.80
22322;BMP180;11328;53.928;18.522;2023-01-28T01:44:04;101211.00;;;1.70
22322;BMP180;11328;53.928;18.522;2023-01-28T01:46:42;101208.00;;;1.70
22322;BMP180;11328;53.928;18.522;2023-01-28T01:49:26;101208.00;;;1.90
22322;BMP180;11328;53.928;18.522;2023-01-28T01:52:01;101224.00;;;1.90
22322;BMP180;11328;53.928;18.522;2023-01-28T01:54:31;101209.00;;;2.00
22322;BMP180;11328;53.928;18.522;2023-01-28T01:57:01;101211.00;;;2.10
22322;BMP180;11328;53.928;18.522;2023-01-28T01:59:32;101220.00;;;2.10
22322;BMP180;11328;53.928;18.522;2023-01-28T02:02:04;101221.00;;;2.00
22322;BMP180;11328;53.928;18.522;2023-01-28T02:04:41;101225.00;;;2.00
22322;BMP180;11328;53.928;18.522;2023-01-28T02:07:16;101220.00;;;1.90
22322;BMP180;11328;53.928;18.522;2023-01-28T02:09:44;101220.00;;;2.00
22322;BMP180;11328;53.928;18.522;2023-01-28T02:12:18;101207.00;;;2.00
22322;BMP180;11328;53.928;18.522;2023-01-28T02:15:07;101213.00;;;2.00
22322;BMP180;11328;53.928;18.522;2023-01-28T02:17:36;101197.00;;;1.80
22322;BMP180;11328;53.928;18.522;2023-01-28T02:20:16;101214.00;;;1.60
22322;BMP180;11328;53.928;18.522;2023-01-28T02:32:41;101205.00;;;1.60
22322;BMP180;11328;53.928;18.522;2023-01-28T02:38:32;101204.00;;;1.10
22322;BMP180;11328;53.928;18.522;2023-01-28T02:41:14;101186.00;;;0.90
22322;BMP180;11328;53.928;18.522;2023-01-28T02:43:45;101203.00;;;0.90
22322;BMP180;11328;53.928;18.522;2023-01-28T02:46:32;101194.00;;;0.80
22322;BMP180;11328;53.928;18.522;2023-01-28T02:49:40;101186.00;;;0.60
22322;BMP180;11328;53.928;18.522;2023-01-28T02:52:49;101181.00;;;0.60
22322;BMP180;11328;53.928;18.522;2023-01-28T03:02:19;101182.00;;;0.30
22322;BMP180;11328;53.928;18.522;2023-01-28T03:05:24;101177.00;;;0.30
22322;BMP180;11328;53.928;18.522;2023-01-28T03:07:52;101187.00;;;0.40
22322;BMP180;11328;53.928;18.522;2023-01-28T03:10:24;101184.00;;;0.60
22322;BMP180;11328;53.928;18.522;2023-01-28T03:12:56;101199.00;;;0.80
22322;BMP180;11328;53.928;18.522;2023-01-28T03:15:47;101189.00;;;0.60
22322;BMP180;11328;53.928;18.522;2023-01-28T03:18:44;101187.00;;;0.60
22322;BMP180;11328;53.928;18.522;2023-01-28T03:21:38;101187.00;;;0.40
22322;BMP180;11328;53.928;18.522;2023-01-28T03:24:34;101176.00;;;0.30
22322;BMP180;11328;53.928;18.522;2023-01-28T03:27:41;101184.00;;;0.30
22322;BMP180;11328;53.928;18.522;2023-01-28T03:30:56;101173.00;;;0.40
22322;BMP180;11328;53.928;18.522;2023-01-28T03:33:46;101179.00;;;0.20
22322;BMP180;11328;53.928;18.522;2023-01-28T03:36:32;101145.00;;;0.20
22322;BMP180;11328;53.928;18.522;2023-01-28T03:39:25;101169.00;;;0.30
22322;BMP180;11328;53.928;18.522;2023-01-28T03:42:09;101177.00;;;0.40
22322;BMP180;11328;53.928;18.522;2023-01-28T03:44:37;101156.00;;;0.50
22322;BMP180;11328;53.928;18.522;2023-01-28T03:47:26;101176.00;;;0.40
22322;BMP180;11328;53.928;18.522;2023-01-28T03:49:56;101170.00;;;0.30
22322;BMP180;11328;53.928;18.522;2023-01-28T03:52:27;101169.00;;;0.40
22322;BMP180;11328;53.928;18.522;2023-01-28T03:54:56;101169.00;;;0.30
22322;BMP180;11328;53.928;18.522;2023-01-28T03:57:26;101173.00;;;0.40
22322;BMP180;11328;53.928;18.522;2023-01-28T03:59:53;101174.00;;;0.70
22322;BMP180;11328;53.928;18.522;2023-01-28T04:02:22;101175.00;;;0.70
22322;BMP180;11328;53.928;18.522;2023-01-28T04:04:49;101139.00;;;0.80
22322;BMP180;11328;53.928;18.522;2023-01-28T04:07:17;101177.00;;;0.70
22322;BMP180;11328;53.928;18.522;2023-01-28T04:09:44;101173.00;;;0.70
22322;BMP180;11328;53.928;18.522;2023-01-28T04:12:11;101175.00;;;0.70
22322;BMP180;11328;53.928;18.522;2023-01-28T04:14:39;101177.00;;;0.70
22322;BMP180;11328;53.928;18.522;2023-01-28T04:17:07;101171.00;;;0.70
22322;BMP180;11328;53.928;18.522;2023-01-28T04:19:37;101162.00;;;0.80
22322;BMP180;11328;53.928;18.522;2023-01-28T04:22:09;101182.00;;;0.70
22322;BMP180;11328;53.928;18.522;2023-01-28T04:24:37;101171.00;;;0.70
22322;BMP180;11328;53.928;18.522;2023-01-28T04:27:04;101175.00;;;0.70
22322;BMP180;11328;53.928;18.522;2023-01-28T04:29:31;101185.00;;;0.70
22322;BMP180;11328;53.928;18.522;2023-01-28T04:31:58;101175.00;;;0.80
22322;BMP180;11328;53.928;18.522;2023-01-28T04:34:25;101173.00;;;0.90
22322;BMP180;11328;53.928;18.522;2023-01-28T04:36:52;101184.00;;;1.10
22322;BMP180;11328;53.928;18.522;2023-01-28T04:39:19;101180.00;;;1.20
22322;BMP180;11328;53.928;18.522;2023-01-28T04:41:46;101185.00;;;1.20
22322;BMP180;11328;53.928;18.522;2023-01-28T04:44:13;101181.00;;;1.30
22322;BMP180;11328;53.928;18.522;2023-01-28T04:46:42;101180.00;;;1.20
22322;BMP180;11328;53.928;18.522;2023-01-28T04:49:09;101182.00;;;1.20
22322;BMP180;11328;53.928;18.522;2023-01-28T04:51:36;101202.00;;;1.10
22322;BMP180;11328;53.928;18.522;2023-01-28T04:54:04;101190.00;;;1.20
22322;BMP180;11328;53.928;18.522;2023-01-28T04:56:31;101198.00;;;1.30
22322;BMP180;11328;53.928;18.522;2023-01-28T04:58:58;101193.00;;;1.40
22322;BMP180;11328;53.928;18.522;2023-01-28T05:01:25;101196.00;;;1.40
22322;BMP180;11328;53.928;18.522;2023-01-28T05:03:53;101188.00;;;1.30
22322;BMP180;11328;53.928;18.522;2023-01-28T05:06:20;101195.00;;;1.40
22322;BMP180;11328;53.928;18.522;2023-01-28T05:08:47;101184.00;;;1.40
22322;BMP180;11328;53.928;18.522;2023-01-28T05:11:15;101191.00;;;1.40
22322;BMP180;11328;53.928;18.522;2023-01-28T05:13:42;101182.00;;;1.30
22322;BMP180;11328;53.928;18.522;2023-01-28T05:16:09;101197.00;;;1.30
22322;BMP180;11328;53.928;18.522;2023-01-28T05:18:36;101189.00;;;1.20
22322;BMP180;11328;53.928;18.522;2023-01-28T05:21:04;101192.00;;;1.20
22322;BMP180;11328;53.928;18.522;2023-01-28T05:23:31;101197.00;;;1.30
22322;BMP180;11328;53.928;18.522;2023-01-28T05:25:59;101191.00;;;1.30
22322;BMP180;11328;53.928;18.522;2023-01-28T05:28:26;101203.00;;;1.30
22322;BMP180;11328;53.928;18.522;2023-01-28T05:30:53;101207.00;;;1.30
22322;BMP180;11328;53.928;18.522;2023-01-28T05:33:20;101202.00;;;1.30
22322;BMP180;11328;53.928;18.522;2023-01-28T05:35:47;101202.00;;;1.20
22322;BMP180;11328;53.928;18.522;2023-01-28T05:38:15;101211.00;;;1.30
22322;BMP180;11328;53.928;18.522;2023-01-28T05:40:42;101204.00;;;1.40
22322;BMP180;11328;53.928;18.522;2023-01-28T05:43:09;101214.00;;;1.30
22322;BMP180;11328;53.928;18.522;2023-01-28T05:45:36;101208.00;;;1.30
22322;BMP180;11328;53.928;18.522;2023-01-28T05:48:04;101218.00;;;1.30
22322;BMP180;11328;53.928;18.522;2023-01-28T05:50:31;101220.00;;;1.40
22322;BMP180;11328;53.928;18.522;2023-01-28T05:52:59;101214.00;;;1.30
22322;BMP180;11328;53.928;18.522;2023-01-28T05:55:26;101220.00;;;1.40
22322;BMP180;11328;53.928;18.522;2023-01-28T05:57:53;101214.00;;;1.50
22322;BMP180;11328;53.928;18.522;2023-01-28T06:00:23;101203.00;;;1.40
22322;BMP180;11328;53.928;18.522;2023-01-28T06:02:53;101206.00;;;1.30
22322;BMP180;11328;53.928;18.522;2023-01-28T06:05:21;101205.00;;;1.30
22322;BMP180;11328;53.928;18.522;2023-01-28T06:07:49;101201.00;;;1.40
22322;BMP180;11328;53.928;18.522;2023-01-28T06:10:16;101215.00;;;1.40
22322;BMP180;11328;53.928;18.522;2023-01-28T06:12:44;101205.00;;;1.30
22322;BMP180;11328;53.928;18.522;2023-01-28T06:15:11;101205.00;;;1.30
22322;BMP180;11328;53.928;18.522;2023-01-28T06:17:38;101202.00;;;1.40
22322;BMP180;11328;53.928;18.522;2023-01-28T06:20:06;101205.00;;;1.40
22322;BMP180;11328;53.928;18.522;2023-01-28T06:22:34;101202.00;;;1.30
22322;BMP180;11328;53.928;18.522;2023-01-28T06:25:02;101204.00;;;1.50
22322;BMP180;11328;53.928;18.522;2023-01-28T06:27:30;101210.00;;;1.40
22322;BMP180;11328;53.928;18.522;2023-01-28T06:29:57;101200.00;;;1.40
22322;BMP180;11328;53.928;18.522;2023-01-28T06:32:24;101202.00;;;1.40
22322;BMP180;11328;53.928;18.522;2023-01-28T06:34:51;101212.00;;;1.40
22322;BMP180;11328;53.928;18.522;2023-01-28T06:37:18;101215.00;;;1.30
22322;BMP180;11328;53.928;18.522;2023-01-28T06:39:45;101208.00;;;1.30
22322;BMP180;11328;53.928;18.522;2023-01-28T06:42:13;101212.00;;;1.30
22322;BMP180;11328;53.928;18.522;2023-01-28T06:44:40;101205.00;;;1.30
22322;BMP180;11328;53.928;18.522;2023-01-28T06:47:07;101212.00;;;1.20
22322;BMP180;11328;53.928;18.522;2023-01-28T06:49:38;101219.00;;;1.20
22322;BMP180;11328;53.928;18.522;2023-01-28T06:52:05;101205.00;;;1.30
22322;BMP180;11328;53.928;18.522;2023-01-28T06:54:33;101208.00;;;1.30
22322;BMP180;11328;53.928;18.522;2023-01-28T06:57:00;101202.00;;;1.40
22322;BMP180;11328;53.928;18.522;2023-01-28T06:59:27;101206.00;;;1.50
22322;BMP180;11328;53.928;18.522;2023-01-28T07:01:54;101206.00;;;1.50
22322;BMP180;11328;53.928;18.522;2023-01-28T07:04:21;101204.00;;;1.60
22322;BMP180;11328;53.928;18.522;2023-01-28T07:06:48;101210.00;;;1.50
22322;BMP180;11328;53.928;18.522;2023-01-28T07:09:15;101216.00;;;1.40
22322;BMP180;11328;53.928;18.522;2023-01-28T07:11:43;101214.00;;;1.30
22322;BMP180;11328;53.928;18.522;2023-01-28T07:14:10;101213.00;;;1.30
22322;BMP180;11328;53.928;18.522;2023-01-28T07:16:37;101214.00;;;1.40
22322;BMP180;11328;53.928;18.522;2023-01-28T07:19:04;101198.00;;;1.30
22322;BMP180;11328;53.928;18.522;2023-01-28T07:21:31;101214.00;;;1.10
22322;BMP180;11328;53.928;18.522;2023-01-28T07:23:58;101219.00;;;1.20
22322;BMP180;11328;53.928;18.522;2023-01-28T07:26:25;101218.00;;;1.50
22322;BMP180;11328;53.928;18.522;2023-01-28T07:28:52;101219.00;;;1.50
22322;BMP180;11328;53.928;18.522;2023-01-28T07:31:19;101223.00;;;1.50
22322;BMP180;11328;53.928;18.522;2023-01-28T07:33:46;101227.00;;;1.50
22322;BMP180;11328;53.928;18.522;2023-01-28T07:36:15;101229.00;;;1.60
22322;BMP180;11328;53.928;18.522;2023-01-28T07:38:42;101221.00;;;1.60
22322;BMP180;11328;53.928;18.522;2023-01-28T07:41:09;101227.00;;;1.60
22322;BMP180;11328;53.928;18.522;2023-01-28T07:43:36;101223.00;;;1.60
22322;BMP180;11328;53.928;18.522;2023-01-28T07:46:03;101233.00;;;1.60
22322;BMP180;11328;53.928;18.522;2023-01-28T07:48:30;101226.00;;;1.70
22322;BMP180;11328;53.928;18.522;2023-01-28T07:50:58;101232.00;;;1.70
22322;BMP180;11328;53.928;18.522;2023-01-28T07:53:25;101225.00;;;1.60
22322;BMP180;11328;53.928;18.522;2023-01-28T07:56:00;101233.00;;;1.60
22322;BMP180;11328;53.928;18.522;2023-01-28T07:58:28;101237.00;;;1.60
22322;BMP180;11328;53.928;18.522;2023-01-28T08:00:57;101221.00;;;1.40
22322;BMP180;11328;53.928;18.522;2023-01-28T08:03:26;101237.00;;;1.70
22322;BMP180;11328;53.928;18.522;2023-01-28T08:05:55;101247.00;;;1.80
22322;BMP180;11328;53.928;18.522;2023-01-28T08:08:24;101230.00;;;1.60
22322;BMP180;11328;53.928;18.522;2023-01-28T08:10:53;101229.00;;;1.50
22322;BMP180;11328;53.928;18.522;2023-01-28T08:13:20;101236.00;;;1.50
22322;BMP180;11328;53.928;18.522;2023-01-28T08:15:48;101241.00;;;1.70
22322;BMP180;11328;53.928;18.522;2023-01-28T08:18:15;101241.00;;;1.90
22322;BMP180;11328;53.928;18.522;2023-01-28T08:20:43;101230.00;;;2.00
22322;BMP180;11328;53.928;18.522;2023-01-28T08:23:17;101228.00;;;2.30
22322;BMP180;11328;53.928;18.522;2023-01-28T08:25:49;101226.00;;;2.30
22322;BMP180;11328;53.928;18.522;2023-01-28T08:28:16;101228.00;;;2.40
22322;BMP180;11328;53.928;18.522;2023-01-28T08:30:44;101236.00;;;2.60
22322;BMP180;11328;53.928;18.522;2023-01-28T08:33:14;101231.00;;;2.60
22322;BMP180;11328;53.928;18.522;2023-01-28T08:35:42;101226.00;;;2.60
22322;BMP180;11328;53.928;18.522;2023-01-28T08:38:14;101219.00;;;2.40
22322;BMP180;11328;53.928;18.522;2023-01-28T08:40:43;101237.00;;;2.50
22322;BMP180;11328;53.928;18.522;2023-01-28T08:43:10;101226.00;;;2.60
22322;BMP180;11328;53.928;18.522;2023-01-28T08:45:39;101225.00;;;2.70
22322;BMP180;11328;53.928;18.522;2023-01-28T08:48:10;101218.00;;;2.80
22322;BMP180;11328;53.928;18.522;2023-01-28T08:50:39;101228.00;;;2.80
22322;BMP180;11328;53.928;18.522;2023-01-28T08:53:15;101216.00;;;2.70
22322;BMP180;11328;53.928;18.522;2023-01-28T08:55:43;101231.00;;;2.70
22322;BMP180;11328;53.928;18.522;2023-01-28T08:58:14;101233.00;;;2.70
22322;BMP180;11328;53.928;18.522;2023-01-28T09:00:43;101237.00;;;2.70
22322;BMP180;11328;53.928;18.522;2023-01-28T09:03:11;101244.00;;;2.80
22322;BMP180;11328;53.928;18.522;2023-01-28T09:05:38;101218.00;;;3.00
22322;BMP180;11328;53.928;18.522;2023-01-28T09:08:10;101239.00;;;3.20
22322;BMP180;11328;53.928;18.522;2023-01-28T09:10:38;101235.00;;;3.20
22322;BMP180;11328;53.928;18.522;2023-01-28T09:13:14;101247.00;;;3.30
22322;BMP180;11328;53.928;18.522;2023-01-28T09:15:41;101249.00;;;3.40
22322;BMP180;11328;53.928;18.522;2023-01-28T09:18:10;101254.00;;;3.50
22322;BMP180;11328;53.928;18.522;2023-01-28T09:20:39;101247.00;;;3.20
22322;BMP180;11328;53.928;18.522;2023-01-28T09:23:06;101237.00;;;3.10
22322;BMP180;11328;53.928;18.522;2023-01-28T09:25:34;101238.00;;;2.90
22322;BMP180;11328;53.928;18.522;2023-01-28T09:28:05;101240.00;;;2.90
22322;BMP180;11328;53.928;18.522;2023-01-28T09:30:32;101243.00;;;2.90
22322;BMP180;11328;53.928;18.522;2023-01-28T09:33:03;101243.00;;;2.80
22322;BMP180;11328;53.928;18.522;2023-01-28T09:35:32;101240.00;;;2.80
22322;BMP180;11328;53.928;18.522;2023-01-28T09:37:59;101241.00;;;3.00
22322;BMP180;11328;53.928;18.522;2023-01-28T09:40:40;101243.00;;;3.00
22322;BMP180;11328;53.928;18.522;2023-01-28T09:43:36;101235.00;;;3.10
22322;BMP180;11328;53.928;18.522;2023-01-28T09:46:02;101236.00;;;3.10
22322;BMP180;11328;53.928;18.522;2023-01-28T09:48:37;101241.00;;;3.00
22322;BMP180;11328;53.928;18.522;2023-01-28T09:52:00;101249.00;;;3.00
22322;BMP180;11328;53.928;18.522;2023-01-28T09:54:38;101246.00;;;3.00
22322;BMP180;11328;53.928;18.522;2023-01-28T09:57:12;101253.00;;;2.90
22322;BMP180;11328;53.928;18.522;2023-01-28T09:59:39;101247.00;;;2.80
22322;BMP180;11328;53.928;18.522;2023-01-28T10:05:21;101243.00;;;2.50
22322;BMP180;11328;53.928;18.522;2023-01-28T10:13:54;101254.00;;;2.80
22322;BMP180;11328;53.928;18.522;2023-01-28T10:16:39;101254.00;;;2.90
22322;BMP180;11328;53.928;18.522;2023-01-28T10:19:27;101248.00;;;2.90
22322;BMP180;11328;53.928;18.522;2023-01-28T10:22:06;101237.00;;;2.70
22322;BMP180;11328;53.928;18.522;2023-01-28T10:24:40;101230.00;;;2.70
22322;BMP180;11328;53.928;18.522;2023-01-28T10:27:20;101226.00;;;2.70
22322;BMP180;11328;53.928;18.522;2023-01-28T10:29:51;101227.00;;;2.60
22322;BMP180;11328;53.928;18.522;2023-01-28T10:32:32;101230.00;;;2.60
22322;BMP180;11328;53.928;18.522;2023-01-28T10:35:03;101232.00;;;2.70
22322;BMP180;11328;53.928;18.522;2023-01-28T10:37:34;101227.00;;;2.70
22322;BMP180;11328;53.928;18.522;2023-01-28T10:40:04;101212.00;;;2.50
22322;BMP180;11328;53.928;18.522;2023-01-28T10:42:37;101218.00;;;2.60
22322;BMP180;11328;53.928;18.522;2023-01-28T10:45:39;101225.00;;;2.70
22322;BMP180;11328;53.928;18.522;2023-01-28T10:48:31;101222.00;;;2.60
22322;BMP180;11328;53.928;18.522;2023-01-28T10:51:02;101227.00;;;2.60
22322;BMP180;11328;53.928;18.522;2023-01-28T10:53:43;101227.00;;;2.70
22322;BMP180;11328;53.928;18.522;2023-01-28T10:56:15;101198.00;;;2.60
22322;BMP180;11328;53.928;18.522;2023-01-28T10:59:06;101208.00;;;2.50
22322;BMP180;11328;53.928;18.522;2023-01-28T11:02:30;101214.00;;;2.60
22322;BMP180;11328;53.928;18.522;2023-01-28T11:05:23;101208.00;;;2.60
22322;BMP180;11328;53.928;18.522;2023-01-28T11:08:24;101212.00;;;2.50
22322;BMP180;11328;53.928;18.522;2023-01-28T11:10:53;101209.00;;;2.60
22322;BMP180;11328;53.928;18.522;2023-01-28T11:13:26;101219.00;;;2.70
22322;BMP180;11328;53.928;18.522;2023-01-28T11:16:17;101209.00;;;2.80
22322;BMP180;11328;53.928;18.522;2023-01-28T11:19:03;101203.00;;;2.70
22322;BMP180;11328;53.928;18.522;2023-01-28T11:21:34;101190.00;;;2.80
22322;BMP180;11328;53.928;18.522;2023-01-28T11:24:06;101190.00;;;2.90
22322;BMP180;11328;53.928;18.522;2023-01-28T11:26:47;101192.00;;;3.00
22322;BMP180;11328;53.928;18.522;2023-01-28T11:29:31;101173.00;;;3.00
22322;BMP180;11328;53.928;18.522;2023-01-28T11:31:59;101176.00;;;2.90
22322;BMP180;11328;53.928;18.522;2023-01-28T11:34:32;101177.00;;;3.20
22322;BMP180;11328;53.928;18.522;2023-01-28T11:37:10;101181.00;;;3.40
22322;BMP180;11328;53.928;18.522;2023-01-28T11:39:38;101170.00;;;3.30
22322;BMP180;11328;53.928;18.522;2023-01-28T11:42:20;101173.00;;;3.10
22322;BMP180;11328;53.928;18.522;2023-01-28T11:44:48;101175.00;;;3.20
22322;BMP180;11328;53.928;18.522;2023-01-28T11:47:37;101175.00;;;3.20
22322;BMP180;11328;53.928;18.522;2023-01-28T11:51:21;101164.00;;;3.20
22322;BMP180;11328;53.928;18.522;2023-01-28T12:01:42;101172.00;;;2.70
22322;BMP180;11328;53.928;18.522;2023-01-28T12:05:01;101171.00;;;2.70
22322;BMP180;11328;53.928;18.522;2023-01-28T12:07:40;101172.00;;;2.70
22322;BMP180;11328;53.928;18.522;2023-01-28T12:10:32;101171.00;;;2.80
22322;BMP180;11328;53.928;18.522;2023-01-28T12:19:08;101154.00;;;3.00
22322;BMP180;11328;53.928;18.522;2023-01-28T12:28:00;101173.00;;;3.10
22322;BMP180;11328;53.928;18.522;2023-01-28T12:37:05;101159.00;;;3.10
22322;BMP180;11328;53.928;18.522;2023-01-28T12:42:41;101138.00;;;2.90
22322;BMP180;11328;53.928;18.522;2023-01-28T12:45:24;101139.00;;;3.10
22322;BMP180;11328;53.928;18.522;2023-01-28T12:48:08;101140.00;;;3.10
22322;BMP180;11328;53.928;18.522;2023-01-28T12:50:53;101143.00;;;3.10
22322;BMP180;11328;53.928;18.522;2023-01-28T12:53:46;101139.00;;;3.10
22322;BMP180;11328;53.928;18.522;2023-01-28T12:56:22;101129.00;;;3.00
22322;BMP180;11328;53.928;18.522;2023-01-28T12:59:09;101133.00;;;2.80
22322;BMP180;11328;53.928;18.522;2023-01-28T13:01:42;101124.00;;;2.80
22322;BMP180;11328;53.928;18.522;2023-01-28T13:07:24;101123.00;;;2.80
22322;BMP180;11328;53.928;18.522;2023-01-28T13:10:03;101121.00;;;2.80
22322;BMP180;11328;53.928;18.522;2023-01-28T13:12:32;101127.00;;;2.90
22322;BMP180;11328;53.928;18.522;2023-01-28T13:15:00;101115.00;;;2.90
22322;BMP180;11328;53.928;18.522;2023-01-28T13:17:31;101106.00;;;2.90
22322;BMP180;11328;53.928;18.522;2023-01-28T13:19:58;101100.00;;;2.80
22322;BMP180;11328;53.928;18.522;2023-01-28T13:22:34;101107.00;;;2.70
22322;BMP180;11328;53.928;18.522;2023-01-28T13:25:24;101110.00;;;2.70
22322;BMP180;11328;53.928;18.522;2023-01-28T13:28:00;101090.00;;;2.80
22322;BMP180;11328;53.928;18.522;2023-01-28T13:30:46;101089.00;;;2.90
22322;BMP180;11328;53.928;18.522;2023-01-28T13:33:35;101087.00;;;2.90
22322;BMP180;11328;53.928;18.522;2023-01-28T13:36:28;101106.00;;;3.00
22322;BMP180;11328;53.928;18.522;2023-01-28T13:41:48;101093.00;;;3.00
22322;BMP180;11328;53.928;18.522;2023-01-28T13:44:27;101086.00;;;2.80
22322;BMP180;11328;53.928;18.522;2023-01-28T13:50:10;101092.00;;;2.90
22322;BMP180;11328;53.928;18.522;2023-01-28T13:52:52;101073.00;;;2.80
22322;BMP180;11328;53.928;18.522;2023-01-28T13:55:34;101074.00;;;2.80
22322;BMP180;11328;53.928;18.522;2023-01-28T13:58:17;101078.00;;;2.80
22322;BMP180;11328;53.928;18.522;2023-01-28T14:01:18;101074.00;;;2.70
22322;BMP180;11328;53.928;18.522;2023-01-28T14:04:31;101080.00;;;2.90
22322;BMP180;11328;53.928;18.522;2023-01-28T14:07:39;101075.00;;;2.90
22322;BMP180;11328;53.928;18.522;2023-01-28T14:10:44;101082.00;;;2.70
22322;BMP180;11328;53.928;18.522;2023-01-28T14:19:12;101083.00;;;2.80
22322;BMP180;11328;53.928;18.522;2023-01-28T14:21:40;101083.00;;;2.70
22322;BMP180;11328;53.928;18.522;2023-01-28T14:24:16;101090.00;;;2.70
22322;BMP180;11328;53.928;18.522;2023-01-28T14:30:17;101082.00;;;2.70
22322;BMP180;11328;53.928;18.522;2023-01-28T14:32:49;101070.00;;;2.60
22322;BMP180;11328;53.928;18.522;2023-01-28T14:35:33;101072.00;;;2.50
22322;BMP180;11328;53.928;18.522;2023-01-28T14:38:12;101077.00;;;2.50
22322;BMP180;11328;53.928;18.522;2023-01-28T14:40:41;101065.00;;;2.50
22322;BMP180;11328;53.928;18.522;2023-01-28T14:43:18;101072.00;;;2.40
22322;BMP180;11328;53.928;18.522;2023-01-28T14:51:45;101047.00;;;2.50
22322;BMP180;11328;53.928;18.522;2023-01-28T14:54:59;101040.00;;;2.40
22322;BMP180;11328;53.928;18.522;2023-01-28T14:57:54;101029.00;;;2.30
22322;BMP180;11328;53.928;18.522;2023-01-28T15:00:32;101030.00;;;2.20
22322;BMP180;11328;53.928;18.522;2023-01-28T15:03:07;101020.00;;;2.20
22322;BMP180;11328;53.928;18.522;2023-01-28T15:06:15;101026.00;;;2.00
22322;BMP180;11328;53.928;18.522;2023-01-28T15:08:42;101028.00;;;1.90
22322;BMP180;11328;53.928;18.522;2023-01-28T15:11:15;101034.00;;;2.10
22322;BMP180;11328;53.928;18.522;2023-01-28T15:13:48;101040.00;;;2.00
22322;BMP180;11328;53.928;18.522;2023-01-28T15:16:26;101037.00;;;2.00
22322;BMP180;11328;53.928;18.522;2023-01-28T15:19:01;101037.00;;;1.90
22322;BMP180;11328;53.928;18.522;2023-01-28T15:21:29;101040.00;;;1.90
22322;BMP180;11328;53.928;18.522;2023-01-28T15:23:59;101047.00;;;1.50
22322;BMP180;11328;53.928;18.522;2023-01-28T15:26:31;101050.00;;;1.70
22322;BMP180;11328;53.928;18.522;2023-01-28T15:28:59;101045.00;;;1.60
22322;BMP180;11328;53.928;18.522;2023-01-28T15:31:31;101055.00;;;1.70
22322;BMP180;11328;53.928;18.522;2023-01-28T15:34:11;101057.00;;;1.70
22322;BMP180;11328;53.928;18.522;2023-01-28T15:36:41;101078.00;;;1.70
22322;BMP180;11328;53.928;18.522;2023-01-28T15:41:48;101076.00;;;1.60
22322;BMP180;11328;53.928;18.522;2023-01-28T15:44:29;101087.00;;;1.70
22322;BMP180;11328;53.928;18.522;2023-01-28T15:46:59;101083.00;;;1.40
22322;BMP180;11328;53.928;18.522;2023-01-28T15:49:36;101089.00;;;1.60
22322;BMP180;11328;53.928;18.522;2023-01-28T15:52:03;101099.00;;;1.60
22322;BMP180;11328;53.928;18.522;2023-01-28T15:54:37;101092.00;;;1.60
22322;BMP180;11328;53.928;18.522;2023-01-28T15:57:26;101091.00;;;1.50
22322;BMP180;11328;53.928;18.522;2023-01-28T16:02:44;101104.00;;;1.60
22322;BMP180;11328;53.928;18.522;2023-01-28T16:08:03;101094.00;;;1.50